Clarkston, Michigan
Current Conditions -  °F | °C
As of 10:53 AM on Thursday 23 Oct 2014 (Local Time) from KPTK Reporting Station
Few Clouds Few Clouds  
Wind Chill: 44°   Ceiling: Unl
Heat Index: 47°   Visibility: 10mi
Dew Point: 39°   Wind: 6mph
Humidity: 74%   Direction: 300°WNW
Pressure: 30.23"   Gusts: NA
Location:  42.74°N, 83.42°W
Report Text: KPTK 231453Z 30005KT 10SM FEW250 08/04 A3023 RMK AO2 SLP242 T00830039 53000
Loading
Personal Weather Stations






























Interactive Weather Map New forecast layout! Learn more

10-Day Weather Forecast

Advertisements
Track Severe Weather on mobile